Flight Track Log - Related Links

Times and Time Zones

All times are in EDT time to prevent confusion due to time zone crossing. See the N135FL flight status page for this flight to view local times or setup timezone preferences in your user account.

Time Position Orientation Groundspeed Altitude Reporting Facility
EDT Latitude Longitude Course Direction KTS MPH feet Rate Location/Type
Sun 09:03:39 PM 26.3128 -81.7836 268° West 180 207 4,800  Level Miami Center
Sun 09:04:39 PM 26.3558 -81.8039 337° Northwest 174 200 6,000 1,200 Climbing Miami Center
Sun 09:05:39 PM 26.3992 -81.8197 342° North 169 194 7,200 1,200 Climbing Miami Center
Sun 09:06:00 PM 26.4012 -82.0689 316° Northwest  Level Estimated
Sun 09:06:39 PM 26.4403 -81.8353 341° North 162 186 8,400  Level Miami Center
Sun 09:07:00 PM 26.3992 -82.1363 268° West  Level FlightAware Approximate
Sun 09:07:39 PM 26.4689 -81.8550 328° Northwest 162 186 9,400  Level Miami Center
Sun 09:08:00 PM 26.3972 -82.2036 268° West  Level FlightAware Approximate
Sun 09:08:39 PM 26.5050 -81.8961 314° West 157 181 10,600  Level Miami Center
Sun 09:09:39 PM 26.5394 -81.9300 319° Northwest 163 188 11,600 1,050 Climbing Miami Center
Sun 09:10:39 PM 26.5794 -81.9758 314° West 173 199 12,700 1,050 Climbing Miami Center
Sun 09:11:39 PM 26.6222 -82.0103 324° Northwest 186 214 13,700 1,000 Climbing Miami Center
Sun 09:12:39 PM 26.6647 -82.0447 324° Northwest 191 220 14,700 1,000 Climbing Miami Center
Sun 09:13:39 PM 26.7056 -82.0742 327° Northwest 197 227 15,700 1,000 Climbing Miami Center
Sun 09:14:39 PM 26.7503 -82.1064 327° Northwest 192 221 16,700 900 Climbing Miami Center
Sun 09:15:39 PM 26.7911 -82.1339 329° Northwest 187 215 17,500 950 Climbing Miami Center
Sun 09:16:39 PM 26.8439 -82.1689 329° Northwest 187 215 18,600 1,050 Climbing Miami Center
Sun 09:17:39 PM 26.8886 -82.2058 324° Northwest 194 223 19,600 950 Climbing Miami Center
Sun 09:18:39 PM 26.9356 -82.2336 332° Northwest 194 223 20,500 950 Climbing Miami Center
Sun 09:19:39 PM 26.9869 -82.2522 342° North 183 211 21,500 1,000 Climbing Miami Center
Sun 09:20:39 PM 27.0425 -82.2736 341° North 183 211 22,500 900 Climbing Miami Center
Sun 09:21:39 PM 27.0942 -82.2922 342° North 188 216 23,300 750 Climbing Miami Center
Sun 09:22:39 PM 27.1478 -82.3086 345° North 193 222 24,000 650 Climbing Miami Center
Sun 09:23:39 PM 27.2033 -82.3253 345° North 198 228 24,600 550 Climbing Miami Center
Sun 09:24:39 PM 27.2528 -82.3442 341° North 205 236 25,100 650 Climbing Miami Center
Sun 09:25:39 PM 27.3206 -82.3706 341° North 210 242 25,900 450 Climbing Miami Center
Sun 09:26:39 PM 27.3800 -82.3992 337° Northwest 221 254 26,000 50 Climbing Miami Center
Sun 09:27:39 PM 27.4456 -82.4328 336° Northwest 239 275 26,000  Level Miami Center
Sun 09:28:39 PM 27.5028 -82.4636 334° Northwest 251 289 26,000  Level Miami Center
Sun 09:29:39 PM 27.5703 -82.4997 335° Northwest 261 300 26,000  Level Miami Center
Sun 09:32:07 PM 27.7344 -82.5903 334° Northwest 267 307 26,000  Level Jacksonville Center
Sun 09:33:07 PM 27.7969 -82.6275 332° Northwest 261 300 26,000  Level Jacksonville Center
Sun 09:34:07 PM 27.8639 -82.6672 332° Northwest 261 300 26,000  Level Jacksonville Center
Sun 09:35:07 PM 27.9328 -82.7000 337° Northwest 261 300 26,000  Level Jacksonville Center
Sun 09:36:07 PM 28.0039 -82.7208 345° North 261 300 26,000  Level Jacksonville Center
Sun 09:37:07 PM 28.0769 -82.7467 343° North 266 306 26,000  Level Jacksonville Center
Sun 09:39:07 PM 28.2064 -82.8219 333° Northwest 266 306 26,000  Level Jacksonville Center
Sun 09:40:07 PM 28.2564 -82.8856 312° West 261 300 26,000  Level Jacksonville Center
Sun 09:41:07 PM 28.3003 -82.9514 307° West 261 300 26,000  Level Jacksonville Center
Sun 09:42:07 PM 28.3419 -83.0222 304° West 268 308 26,000  Level Jacksonville Center
Sun 09:43:07 PM 28.3794 -83.0908 302° West 262 302 26,000  Level Jacksonville Center
Sun 09:44:07 PM 28.4208 -83.1617 304° West 250 288 26,000  Level Jacksonville Center
Sun 09:45:07 PM 28.4542 -83.2325 298° West 250 288 26,000  Level Jacksonville Center
Sun 09:46:07 PM 28.4853 -83.2989 298° West 250 288 26,000  Level Jacksonville Center
Sun 09:47:07 PM 28.5142 -83.3675 296° West 245 282 26,000  Level Jacksonville Center
Sun 09:48:07 PM 28.5453 -83.4408 296° West 245 282 26,000  Level Jacksonville Center
Sun 09:49:07 PM 28.5783 -83.5119 298° West 245 282 26,000  Level Jacksonville Center
Sun 09:50:07 PM 28.6092 -83.5808 297° West 245 282 26,000  Level Jacksonville Center
Sun 09:51:07 PM 28.6506 -83.6447 306° West 245 282 26,000  Level Jacksonville Center
Sun 09:52:07 PM 28.6919 -83.7114 305° West 257 296 26,000  Level Jacksonville Center
Sun 09:53:07 PM 28.7353 -83.7806 306° West 262 302 26,000  Level Jacksonville Center
Sun 09:54:07 PM 28.7850 -83.8450 311° West 262 302 26,000  Level Jacksonville Center
Sun 09:55:07 PM 28.8303 -83.9117 308° West 267 307 26,000  Level Jacksonville Center
Sun 09:56:07 PM 28.8736 -83.9761 308° West 267 307 26,000  Level Jacksonville Center
Sun 09:57:07 PM 28.9128 -84.0478 302° West 267 307 26,000  Level Jacksonville Center
Sun 09:58:07 PM 28.9517 -84.1169 303° West 262 302 26,000 -250 Level Jacksonville Center
Sun 09:59:07 PM 28.9886 -84.1933 299° West 262 302 25,500 -550 Descending Jacksonville Center
Sun 10:00:07 PM 29.0192 -84.2722 294° West 267 307 24,900 -500 Descending Jacksonville Center
Sun 10:01:07 PM 29.0475 -84.3439 294° West 272 313 24,500 -550 Descending Jacksonville Center
Sun 10:02:07 PM 29.0736 -84.4225 291° West 272 313 23,800 -650 Descending Jacksonville Center
Sun 10:03:07 PM 29.1103 -84.4944 300° West 267 307 23,200 -600 Descending Jacksonville Center
Sun 10:04:07 PM 29.1408 -84.5686 295° West 261 300 22,600 -600 Descending Jacksonville Center
Sun 10:05:07 PM 29.1689 -84.6428 293° West 261 300 22,000 -300 Descending Jacksonville Center
Sun 10:06:07 PM 29.1889 -84.7194 287° West 256 295 22,000  Level Jacksonville Center
Sun 10:07:07 PM 29.2211 -84.7889 298° West 248 285 22,000  Level Jacksonville Center
Sun 10:08:07 PM 29.2556 -84.8539 301° West 242 278 22,000  Level Jacksonville Center
Sun 10:09:07 PM 29.2858 -84.9233 297° West 242 278 22,000  Level Jacksonville Center
Sun 10:10:07 PM 29.3181 -84.9956 297° West 247 284 22,000  Level Jacksonville Center
Sun 10:11:07 PM 29.3522 -85.0725 297° West 247 284 22,000  Level Jacksonville Center
Sun 10:12:07 PM 29.3847 -85.1375 300° West 247 284 22,000  Level Jacksonville Center
Sun 10:13:07 PM 29.4272 -85.2100 304° West 252 290 22,000  Level Jacksonville Center
Sun 10:14:07 PM 29.4614 -85.2778 300° West 252 290 22,000  Level Jacksonville Center
Sun 10:15:07 PM 29.4956 -85.3500 299° West 257 296 22,000  Level Jacksonville Center
Sun 10:16:07 PM 29.5339 -85.4203 302° West 252 290 22,000  Level Jacksonville Center
Sun 10:17:07 PM 29.5742 -85.4858 305° West 257 296 22,000  Level Jacksonville Center
Sun 10:18:07 PM 29.6211 -85.5419 314° West 257 296 22,000  Level Jacksonville Center
Sun 10:19:07 PM 29.6656 -85.6053 309° West 252 290 22,000 -100 Level Jacksonville Center
Sun 10:20:07 PM 29.7061 -85.6686 306° West 252 290 21,800 -350 Descending Jacksonville Center
Sun 10:21:07 PM 29.7464 -85.7367 304° West 252 290 21,300 -450 Descending Jacksonville Center
Sun 10:22:07 PM 29.7844 -85.8072 302° West 257 296 20,900 -500 Descending Jacksonville Center
Sun 10:23:07 PM 29.8181 -85.8800 298° West 257 296 20,300 -550 Descending Jacksonville Center
Sun 10:24:07 PM 29.8481 -85.9456 298° West 245 282 19,800 -500 Descending Jacksonville Center
Sun 10:25:07 PM 29.8756 -86.0111 296° West 233 268 19,300 -500 Descending Jacksonville Center
Sun 10:26:07 PM 29.9031 -86.0817 294° West 233 268 18,800 -500 Descending Jacksonville Center
Sun 10:27:07 PM 29.9283 -86.1542 292° West 239 275 18,300 -450 Descending Jacksonville Center
Sun 10:28:07 PM 29.9664 -86.2156 306° West 239 275 17,900 -500 Descending Jacksonville Center
Sun 10:29:07 PM 30.0044 -86.2767 306° West 239 275 17,300 -700 Descending Jacksonville Center
Sun 10:30:07 PM 30.0467 -86.3358 310° West 239 275 16,500 -850 Descending Jacksonville Center
Sun 10:31:07 PM 30.0847 -86.3972 306° West 239 275 15,600 -994 Descending Jacksonville Center
Sun 10:33:08 PM 30.1519 -86.5292 301° West 225 259 13,500 -994 Descending Jacksonville Center
Sun 10:33:50 PM 30.1717 -86.5708 299° West 225 259 12,900 -928 Descending Jacksonville Center
Sun 10:34:45 PM 30.1992 -86.6319 298° West 225 259 12,000 -983 Descending Jacksonville Center
Sun 10:35:46 PM 30.2286 -86.6908 300° West 221 254 11,000 -992 Descending Jacksonville Center
Sun 10:36:46 PM 30.2603 -86.7522 301° West 220 253 10,000 -1,039 Descending Jacksonville Center
Sun 10:37:53 PM 30.2997 -86.8236 303° West 221 254 8,800 -1,091 Descending Jacksonville Center
Sun 10:38:47 PM 30.3253 -86.8775 299° West 217 250 7,800 -1,096 Descending Jacksonville Center
Sun 10:39:48 PM 30.3547 -86.9389 299° West 215 247 6,700 -1,101 Descending Jacksonville Center
Sun 10:40:36 PM 30.3783 -86.9833 302° West 209 241 5,800 -1,156 Descending Jacksonville Center
Sun 10:41:37 PM 30.4036 -87.0419 297° West 198 228 4,600 -1,180 Descending Jacksonville Center
Sun 10:42:38 PM 30.4528 -87.0658 337° Northwest 177 204 3,400 -992 Descending Jacksonville Center
Sun 10:43:38 PM 30.4958 -87.0894 335° Northwest 175 201 2,600 -744 Descending Jacksonville Center
Sun 10:44:39 PM 30.5150 -87.1411 293° West 169 194 1,900 -563 Descending Jacksonville Center
Sun 10:45:46 PM 30.5153 -87.1939 270° West 134 154 1,400 -756 Descending Jacksonville Center
Sun 10:46:46 PM 30.4883 -87.1953 183° South 96 110 300 -1,100 Descending Jacksonville Center
Sun 10:48:00 PM 30.4734 -87.1866 180° South  Level Estimated
Sun 10:55:00 PM 30.4734 -87.1866 180° South  Level Estimated

Login

Don't have an account? Register now (free) for customized features, flight alerts, and more!